Time;durP1;ratioP1;P1;durP2;ratioP2;P2;SDS_P1;SDS_P2;PMS_P1;PMS_P2;Temp;Humidity;BMP_temperature;BMP_pressure;BME280_temperature;BME280_humidity;BME280_pressure;Samples;Min_cycle;Max_cycle;Signal;HPM_P1;HPM_P2
2023/01/06 00:00:19;;;;;;;2.20;2.00;;;6.70;97.30;;;;;;4998902;28;20951;-89
2023/01/06 00:02:45;;;;;;;1.70;1.60;;;6.70;97.30;;;;;;5000092;28;20677;-90
2023/01/06 00:05:11;;;;;;;1.93;1.80;;;6.70;97.30;;;;;;4998926;28;20758;-89
2023/01/06 00:07:38;;;;;;;2.13;1.50;;;6.70;97.30;;;;;;4998853;28;20481;-90
2023/01/06 00:10:04;;;;;;;1.27;1.27;;;6.70;97.30;;;;;;4998839;28;20420;-90
2023/01/06 00:12:29;;;;;;;2.53;2.33;;;6.70;97.30;;;;;;4995295;28;20591;-89
2023/01/06 00:14:55;;;;;;;6.10;1.30;;;6.70;97.30;;;;;;4996444;28;20974;-89
2023/01/06 00:17:21;;;;;;;1.27;1.17;;;6.70;97.30;;;;;;4995440;28;20184;-89
2023/01/06 00:19:47;;;;;;;1.60;1.50;;;6.70;97.30;;;;;;4995490;28;20297;-89
2023/01/06 00:22:12;;;;;;;4.13;2.43;;;6.70;97.30;;;;;;4995177;28;20535;-90
2023/01/06 00:24:37;;;;;;;5.33;3.20;;;6.60;97.30;;;;;;4994954;28;20472;-89
2023/01/06 00:27:03;;;;;;;2.23;2.03;;;6.70;97.30;;;;;;4995514;28;20265;-89
2023/01/06 00:29:29;;;;;;;2.83;2.60;;;6.70;97.30;;;;;;4995098;28;20193;-89
2023/01/06 00:31:54;;;;;;;1.90;1.80;;;6.70;97.30;;;;;;4995140;28;20178;-89
2023/01/06 00:34:20;;;;;;;1.30;1.20;;;6.70;97.30;;;;;;4994888;28;20189;-89
2023/01/06 00:36:45;;;;;;;2.70;2.50;;;6.70;97.30;;;;;;4996220;28;20174;-89
2023/01/06 00:39:12;;;;;;;4.43;2.00;;;6.70;97.30;;;;;;4991409;28;20190;-90
2023/01/06 00:44:23;;;;;;;2.30;2.00;;;6.80;97.30;;;;;;4976672;28;20549;-89
2023/01/06 00:46:48;;;;;;;2.90;2.47;;;6.80;97.30;;;;;;4991869;28;20508;-90
2023/01/06 00:49:14;;;;;;;1.97;1.87;;;6.80;97.30;;;;;;4992057;28;20179;-91
2023/01/06 00:51:39;;;;;;;1.73;1.40;;;6.90;97.30;;;;;;4991716;28;20186;-89
2023/01/06 00:54:07;;;;;;;2.40;2.20;;;6.90;97.30;;;;;;4991980;28;20203;-89
2023/01/06 00:56:39;;;;;;;2.20;2.03;;;6.90;97.30;;;;;;4990218;28;20842;-90
2023/01/06 00:59:05;;;;;;;4.73;2.70;;;6.90;97.30;;;;;;4991549;28;20457;-89
2023/01/06 01:01:32;;;;;;;4.83;2.10;;;6.90;97.30;;;;;;4991083;28;20833;-89
2023/01/06 01:03:57;;;;;;;2.03;1.57;;;6.90;97.30;;;;;;4990783;28;20489;-89
2023/01/06 01:06:23;;;;;;;1.57;1.47;;;6.90;97.30;;;;;;4990846;28;20406;-89
2023/01/06 01:08:57;;;;;;;2.70;1.70;;;6.90;97.30;;;;;;4991258;28;20190;-90
2023/01/06 01:14:10;;;;;;;1.87;1.30;;;7.00;97.30;;;;;;4976366;28;20453;-89
2023/01/06 01:16:35;;;;;;;2.30;1.80;;;7.00;97.30;;;;;;4974660;28;20421;-89
2023/01/06 01:19:02;;;;;;;4.00;2.43;;;7.00;97.30;;;;;;4991132;28;20418;-89
2023/01/06 01:21:27;;;;;;;1.30;1.20;;;7.00;97.30;;;;;;4990618;28;20694;-89
2023/01/06 01:23:53;;;;;;;1.63;1.53;;;7.00;97.30;;;;;;4990911;28;20469;-89
2023/01/06 01:26:19;;;;;;;1.30;1.20;;;7.00;97.30;;;;;;4974510;28;20191;-89
2023/01/06 01:28:44;;;;;;;1.80;1.70;;;7.00;97.30;;;;;;4990760;28;20183;-89
2023/01/06 01:31:11;;;;;;;2.80;2.23;;;7.00;97.30;;;;;;4990691;28;20644;-89
2023/01/06 01:33:37;;;;;;;1.57;1.57;;;7.10;97.30;;;;;;4990537;28;20673;-89
2023/01/06 01:36:07;;;;;;;2.33;2.00;;;7.10;97.30;;;;;;4990608;28;20425;-89
2023/01/06 01:38:33;;;;;;;4.30;3.07;;;7.10;97.30;;;;;;4990725;28;20186;-89
2023/01/06 01:40:58;;;;;;;1.47;1.37;;;7.10;97.30;;;;;;4990379;28;20476;-89
2023/01/06 01:43:24;;;;;;;2.23;1.33;;;7.10;97.30;;;;;;4990133;28;20323;-89
2023/01/06 01:45:52;;;;;;;6.77;3.23;;;7.10;97.30;;;;;;4990166;28;20206;-89
2023/01/06 01:48:29;;;;;;;2.17;1.93;;;7.10;97.30;;;;;;4975484;28;20175;-89
2023/01/06 01:50:57;;;;;;;1.20;1.10;;;7.10;97.30;;;;;;4990198;28;20429;-89
2023/01/06 01:53:34;;;;;;;1.37;1.30;;;7.10;97.30;;;;;;4989840;28;20525;-90
2023/01/06 01:56:05;;;;;;;3.87;2.67;;;7.10;97.30;;;;;;4989668;28;20913;-89
2023/01/06 01:58:52;;;;;;;1.53;1.43;;;7.10;97.30;;;;;;4990241;28;20509;-89
2023/01/06 02:01:18;;;;;;;1.70;1.30;;;7.10;97.30;;;;;;4975281;28;20434;-89
2023/01/06 02:03:44;;;;;;;2.90;2.00;;;7.10;97.30;;;;;;4973249;28;21054;-89
2023/01/06 02:06:14;;;;;;;4.50;3.00;;;7.10;97.30;;;;;;4974163;28;20182;-89
2023/01/06 02:08:54;;;;;;;2.93;1.73;;;7.10;97.30;;;;;;4975159;28;20421;-90
2023/01/06 02:11:20;;;;;;;2.40;2.20;;;7.10;97.30;;;;;;4973941;28;20410;-89
2023/01/06 02:13:50;;;;;;;1.63;1.43;;;7.10;97.30;;;;;;4973868;28;20445;-89
2023/01/06 02:16:29;;;;;;;3.33;2.13;;;7.10;97.30;;;;;;4973786;28;20790;-89
2023/01/06 02:19:43;;;;;;;6.50;2.80;;;7.10;97.30;;;;;;4974052;28;20414;-89
2023/01/06 02:22:40;;;;;;;2.50;1.40;;;7.10;97.30;;;;;;4989899;28;20445;-89
2023/01/06 02:25:20;;;;;;;3.83;3.63;;;7.20;97.30;;;;;;4989926;28;20453;-90
2023/01/06 02:28:04;;;;;;;2.47;2.27;;;7.20;97.30;;;;;;4989923;28;20773;-89
2023/01/06 02:30:41;;;;;;;1.83;1.73;;;7.20;97.30;;;;;;4989877;28;20463;-89
2023/01/06 02:33:29;;;;;;;2.30;2.13;;;7.20;97.30;;;;;;4989906;28;20484;-90
2023/01/06 02:36:16;;;;;;;6.53;2.63;;;7.20;97.30;;;;;;4973531;28;20493;-90
2023/01/06 02:39:11;;;;;;;1.63;1.57;;;7.20;97.30;;;;;;4973532;28;20406;-90
2023/01/06 02:41:51;;;;;;;2.07;1.93;;;7.20;97.30;;;;;;4973127;28;20459;-89
2023/01/06 02:44:27;;;;;;;3.33;2.10;;;7.20;97.30;;;;;;4974477;28;20452;-89
2023/01/06 02:47:22;;;;;;;4.03;2.37;;;7.20;97.30;;;;;;4973133;28;20907;-89
2023/01/06 02:49:58;;;;;;;1.30;1.20;;;7.20;97.30;;;;;;4955144;28;20518;-89
2023/01/06 02:52:37;;;;;;;3.17;2.20;;;7.20;97.30;;;;;;4988784;28;20442;-90
2023/01/06 02:55:16;;;;;;;1.93;1.83;;;7.20;97.30;;;;;;4971462;28;20410;-89
2023/01/06 02:57:55;;;;;;;5.90;2.70;;;7.20;97.30;;;;;;4971080;28;20517;-90
2023/01/06 03:00:29;;;;;;;7.10;2.60;;;7.20;97.30;;;;;;4971105;28;20417;-89
2023/01/06 03:03:03;;;;;;;4.53;2.37;;;7.20;97.30;;;;;;4987343;28;20840;-90
2023/01/06 03:05:32;;;;;;;2.60;2.40;;;7.20;97.30;;;;;;4972205;28;20840;-90
2023/01/06 03:08:01;;;;;;;2.00;1.67;;;7.30;97.30;;;;;;4971262;28;20855;-90
2023/01/06 03:10:28;;;;;;;2.30;2.10;;;7.30;97.30;;;;;;4983532;28;20414;-91
2023/01/06 03:13:05;;;;;;;7.40;4.13;;;7.30;97.30;;;;;;4996037;28;20434;-90
2023/01/06 03:15:30;;;;;;;2.27;2.07;;;7.30;97.30;;;;;;4978269;28;20965;-89
2023/01/06 03:17:56;;;;;;;8.07;2.60;;;7.30;97.30;;;;;;4971225;28;20414;-90
2023/01/06 03:20:22;;;;;;;3.33;2.23;;;7.30;97.30;;;;;;4971449;28;20179;-90
2023/01/06 03:22:47;;;;;;;2.80;2.60;;;7.30;97.30;;;;;;4988171;28;20626;-90
2023/01/06 03:25:13;;;;;;;7.80;1.70;;;7.30;97.30;;;;;;4989168;28;20285;-90
2023/01/06 03:27:39;;;;;;;2.43;2.23;;;7.40;97.30;;;;;;4972499;28;20206;-90
2023/01/06 03:30:08;;;;;;;2.57;2.37;;;7.40;97.30;;;;;;4988990;28;20418;-89
2023/01/06 03:32:47;;;;;;;7.50;2.87;;;7.40;97.30;;;;;;4988738;28;20719;-89
2023/01/06 03:35:19;;;;;;;1.77;1.67;;;7.40;97.30;;;;;;4972854;28;20429;-90
2023/01/06 03:38:07;;;;;;;1.73;1.63;;;7.40;97.30;;;;;;4988830;28;20465;-90
2023/01/06 03:41:09;;;;;;;3.80;2.63;;;7.50;97.30;;;;;;4988787;28;20425;-89
2023/01/06 03:43:58;;;;;;;2.03;1.87;;;7.50;97.30;;;;;;4967590;28;20445;-89
2023/01/06 03:46:43;;;;;;;4.73;3.53;;;7.50;97.30;;;;;;4988493;28;20429;-89
2023/01/06 03:49:20;;;;;;;3.93;3.40;;;7.50;97.30;;;;;;4972564;28;20410;-90
2023/01/06 03:51:47;;;;;;;2.43;1.83;;;7.40;97.30;;;;;;4988615;28;20426;-89
2023/01/06 03:54:17;;;;;;;3.03;1.90;;;7.50;97.30;;;;;;4972559;28;20421;-89
2023/01/06 03:56:53;;;;;;;1.80;1.70;;;7.50;97.30;;;;;;4973525;28;20418;-90
2023/01/06 03:59:22;;;;;;;4.63;2.50;;;7.50;97.30;;;;;;4988418;28;20428;-89
2023/01/06 04:01:48;;;;;;;2.50;2.37;;;7.50;97.30;;;;;;5001696;28;20425;-90
2023/01/06 04:04:16;;;;;;;1.90;1.87;;;7.50;97.30;;;;;;5012989;23;20495;-84
2023/01/06 04:06:42;;;;;;;1.60;1.50;;;7.50;97.30;;;;;;5004818;28;20440;-85
2023/01/06 04:09:07;;;;;;;1.50;1.40;;;7.50;97.30;;;;;;5006488;28;20421;-84
2023/01/06 04:14:17;;;;;;;3.67;2.83;;;7.50;97.30;;;;;;4977229;28;20241;-84
2023/01/06 04:16:42;;;;;;;16.10;3.13;;;7.50;97.30;;;;;;4970020;28;20430;-85
2023/01/06 04:19:08;;;;;;;1.57;1.53;;;7.50;97.30;;;;;;4969280;28;20186;-84
2023/01/06 04:21:33;;;;;;;4.40;1.33;;;7.50;97.30;;;;;;4985386;28;20731;-84
2023/01/06 04:23:58;;;;;;;2.33;2.13;;;7.50;97.30;;;;;;4970210;28;20740;-85
2023/01/06 04:26:24;;;;;;;3.43;1.47;;;7.40;97.30;;;;;;4968736;28;20282;-83
2023/01/06 04:28:50;;;;;;;2.10;1.60;;;7.40;97.30;;;;;;4968799;28;20178;-87
2023/01/06 04:31:16;;;;;;;1.87;1.73;;;7.50;97.30;;;;;;4972201;28;20175;-86
2023/01/06 04:33:41;;;;;;;1.57;1.47;;;7.40;97.30;;;;;;4973492;28;20492;-87
2023/01/06 04:36:07;;;;;;;2.17;1.70;;;7.50;97.30;;;;;;4974553;28;20174;-86
2023/01/06 04:38:33;;;;;;;1.80;1.70;;;7.50;97.30;;;;;;4974855;28;20171;-88
2023/01/06 04:40:58;;;;;;;1.57;1.47;;;7.50;97.30;;;;;;4981228;28;20425;-86
2023/01/06 04:43:24;;;;;;;1.57;1.47;;;7.50;97.30;;;;;;4992726;28;20642;-86
2023/01/06 04:45:50;;;;;;;6.53;1.83;;;7.50;97.30;;;;;;4992712;28;20181;-88
2023/01/06 04:48:15;;;;;;;1.17;1.07;;;7.50;97.30;;;;;;4992578;28;20178;-86
2023/01/06 04:50:41;;;;;;;1.90;1.20;;;7.50;97.30;;;;;;4992540;28;20541;-86
2023/01/06 04:53:08;;;;;;;2.60;1.23;;;7.60;97.30;;;;;;4992635;28;20194;-86
2023/01/06 04:55:37;;;;;;;16.83;2.20;;;7.60;97.30;;;;;;4992260;28;20184;-86
2023/01/06 04:58:02;;;;;;;3.03;1.50;;;7.60;97.30;;;;;;4992748;28;20417;-87
2023/01/06 05:00:28;;;;;;;1.87;1.57;;;7.60;97.30;;;;;;4993906;28;20516;-87
2023/01/06 05:02:53;;;;;;;3.30;2.23;;;7.60;97.30;;;;;;4992607;28;20633;-87
2023/01/06 05:05:19;;;;;;;3.37;3.20;;;7.50;97.30;;;;;;4992633;28;20308;-86
2023/01/06 05:07:44;;;;;;;1.10;1.00;;;7.50;97.30;;;;;;4992396;28;20181;-86
2023/01/06 05:10:10;;;;;;;1.40;1.30;;;7.50;97.30;;;;;;4992435;28;20178;-86
2023/01/06 05:12:35;;;;;;;1.57;1.47;;;7.60;97.30;;;;;;4993607;28;20182;-86
2023/01/06 05:15:01;;;;;;;1.90;1.70;;;7.60;97.30;;;;;;4992630;28;20190;-87
2023/01/06 05:17:27;;;;;;;12.90;4.30;;;7.60;97.30;;;;;;4991800;28;20280;-86
2023/01/06 05:19:53;;;;;;;1.57;1.47;;;7.60;97.30;;;;;;4991619;28;20559;-87
2023/01/06 05:22:18;;;;;;;2.50;1.90;;;7.60;97.30;;;;;;4992299;28;20444;-86
2023/01/06 05:24:44;;;;;;;2.83;1.97;;;7.60;97.30;;;;;;4992414;28;20697;-87
2023/01/06 05:27:09;;;;;;;1.10;1.00;;;7.60;97.30;;;;;;5016136;28;20200;-88
2023/01/06 05:29:35;;;;;;;2.27;1.33;;;7.70;97.30;;;;;;5010020;28;20218;-91
2023/01/06 05:32:01;;;;;;;1.83;1.60;;;7.70;97.30;;;;;;5010142;28;20178;-89
2023/01/06 05:34:27;;;;;;;3.10;2.50;;;7.70;97.30;;;;;;4988509;28;20469;-88
2023/01/06 05:36:53;;;;;;;3.23;3.03;;;7.70;97.30;;;;;;4987080;28;20189;-88
2023/01/06 05:39:19;;;;;;;1.87;1.77;;;7.70;97.30;;;;;;4983395;28;20514;-88
2023/01/06 05:41:44;;;;;;;1.67;1.57;;;7.80;97.30;;;;;;4971381;28;20484;-86
2023/01/06 05:44:10;;;;;;;6.30;1.70;;;7.80;97.30;;;;;;4972577;28;20218;-86
2023/01/06 05:46:35;;;;;;;17.43;2.43;;;7.90;97.30;;;;;;4972449;28;20266;-87
2023/01/06 05:49:01;;;;;;;6.10;1.67;;;7.90;97.30;;;;;;4972328;28;20620;-87
2023/01/06 05:51:27;;;;;;;6.43;3.60;;;7.90;97.30;;;;;;4973762;28;20613;-86
2023/01/06 05:53:53;;;;;;;4.00;1.23;;;8.00;97.30;;;;;;4972239;28;20442;-87
2023/01/06 05:56:19;;;;;;;4.10;3.20;;;8.00;97.30;;;;;;4978588;28;20194;-87
2023/01/06 05:58:47;;;;;;;1.53;1.20;;;8.00;97.30;;;;;;4991645;28;20181;-87
2023/01/06 06:01:22;;;;;;;1.10;1.00;;;8.10;97.30;;;;;;5007889;28;20516;-87
2023/01/06 06:03:48;;;;;;;1.67;1.57;;;8.10;97.30;;;;;;4992435;28;20477;-87
2023/01/06 06:06:14;;;;;;;2.33;2.13;;;8.10;97.30;;;;;;4991257;28;20402;-87
2023/01/06 06:08:39;;;;;;;2.20;1.20;;;8.10;97.30;;;;;;4991402;28;20476;-86
2023/01/06 06:11:07;;;;;;;3.37;2.07;;;8.10;97.30;;;;;;4992050;28;20184;-87
2023/01/06 06:13:33;;;;;;;1.13;1.03;;;8.20;97.30;;;;;;4992239;28;20190;-89
2023/01/06 06:16:10;;;;;;;1.20;1.10;;;8.20;97.30;;;;;;4990851;28;20468;-88
2023/01/06 06:18:41;;;;;;;2.97;2.23;;;8.20;97.30;;;;;;4989778;28;20664;-88
2023/01/06 06:21:08;;;;;;;2.40;1.40;;;8.20;97.30;;;;;;4989491;28;20413;-87
2023/01/06 06:23:34;;;;;;;1.13;1.10;;;8.30;97.30;;;;;;4989282;28;21010;-86
2023/01/06 06:25:59;;;;;;;5.13;1.90;;;8.30;97.30;;;;;;4989461;28;20413;-89
2023/01/06 06:28:25;;;;;;;1.63;1.53;;;8.30;97.30;;;;;;4983487;28;20452;-87
2023/01/06 06:30:51;;;;;;;3.00;1.93;;;8.30;97.30;;;;;;4972653;28;20179;-87
2023/01/06 06:33:16;;;;;;;1.13;1.03;;;8.40;97.30;;;;;;4971860;28;20347;-89
2023/01/06 06:35:42;;;;;;;1.93;1.83;;;8.40;97.30;;;;;;4971439;28;20186;-87
2023/01/06 06:38:07;;;;;;;1.73;1.63;;;8.40;97.30;;;;;;4987702;28;20210;-88
2023/01/06 06:40:33;;;;;;;1.80;1.70;;;8.40;97.30;;;;;;4972381;28;20294;-87
2023/01/06 06:42:58;;;;;;;1.37;1.27;;;8.40;97.30;;;;;;4987341;28;20202;-87
2023/01/06 06:45:24;;;;;;;5.13;1.37;;;8.40;97.30;;;;;;4987561;28;20253;-87
2023/01/06 06:47:53;;;;;;;6.10;1.30;;;8.40;97.30;;;;;;4986757;28;20194;-88
2023/01/06 06:50:18;;;;;;;1.17;1.07;;;8.50;97.30;;;;;;4969385;28;20604;-87
2023/01/06 06:52:44;;;;;;;2.10;1.77;;;8.50;97.30;;;;;;4985632;28;20505;-87
2023/01/06 06:55:09;;;;;;;1.80;1.37;;;8.40;97.30;;;;;;4984950;28;20205;-88
2023/01/06 06:57:35;;;;;;;1.93;1.83;;;8.50;97.30;;;;;;4985876;28;20179;-87
2023/01/06 07:00:00;;;;;;;1.57;1.47;;;8.50;97.30;;;;;;4986380;28;20318;-87
2023/01/06 07:02:26;;;;;;;1.97;1.87;;;8.50;97.30;;;;;;4987107;28;20228;-87
2023/01/06 07:04:51;;;;;;;1.40;1.30;;;8.50;97.30;;;;;;4987244;28;20225;-87
2023/01/06 07:07:17;;;;;;;7.53;3.03;;;8.50;97.30;;;;;;4987763;28;20256;-88
2023/01/06 07:09:42;;;;;;;1.63;1.53;;;8.50;97.30;;;;;;4986860;28;20254;-88
2023/01/06 07:12:08;;;;;;;0.90;0.80;;;8.50;97.30;;;;;;4972269;28;20670;-87
2023/01/06 07:14:33;;;;;;;1.93;1.70;;;8.60;97.30;;;;;;4985462;28;20210;-88
2023/01/06 07:17:00;;;;;;;1.00;1.00;;;8.60;97.30;;;;;;4970198;28;20273;-87
2023/01/06 07:19:26;;;;;;;3.70;1.10;;;8.60;97.30;;;;;;4970631;28;20273;-86
2023/01/06 07:21:51;;;;;;;1.40;1.23;;;8.60;97.30;;;;;;4972294;28;20992;-89
2023/01/06 07:24:17;;;;;;;1.43;1.33;;;8.60;97.30;;;;;;4970564;28;20202;-86
2023/01/06 07:26:42;;;;;;;1.00;0.90;;;8.60;97.30;;;;;;4971129;28;20551;-86
2023/01/06 07:29:08;;;;;;;1.33;1.23;;;8.70;97.30;;;;;;4970785;28;20206;-88
2023/01/06 07:31:33;;;;;;;1.50;1.40;;;8.70;97.30;;;;;;4970956;28;20178;-86
2023/01/06 07:33:59;;;;;;;1.57;1.47;;;8.70;97.30;;;;;;4971003;28;20288;-86
2023/01/06 07:36:24;;;;;;;1.57;1.40;;;8.70;97.30;;;;;;4987358;28;20719;-89
2023/01/06 07:38:50;;;;;;;2.20;1.87;;;8.80;97.30;;;;;;4987111;28;20193;-86
2023/01/06 07:41:15;;;;;;;1.30;1.20;;;8.80;97.30;;;;;;4972423;28;20587;-86
2023/01/06 07:43:41;;;;;;;1.77;1.23;;;8.80;97.30;;;;;;4986578;28;20205;-86
2023/01/06 07:46:06;;;;;;;1.33;1.30;;;8.80;97.30;;;;;;4972149;28;20349;-86
2023/01/06 07:48:32;;;;;;;1.73;1.63;;;8.80;97.30;;;;;;4986707;28;20170;-86
2023/01/06 07:50:57;;;;;;;2.03;1.90;;;8.90;97.30;;;;;;4986832;28;20680;-87
2023/01/06 07:53:23;;;;;;;1.27;1.17;;;8.90;97.30;;;;;;4986876;28;20194;-86
2023/01/06 07:55:52;;;;;;;2.00;1.90;;;8.90;97.30;;;;;;4986973;28;20425;-86
2023/01/06 07:58:18;;;;;;;4.80;2.80;;;8.90;97.30;;;;;;4970933;28;20475;-87
2023/01/06 08:00:44;;;;;;;1.37;1.27;;;9.00;97.30;;;;;;4986999;28;20864;-86
2023/01/06 08:03:10;;;;;;;2.40;1.33;;;9.00;97.30;;;;;;4976235;28;20236;-88
2023/01/06 08:05:42;;;;;;;4.10;1.73;;;9.00;97.30;;;;;;4991263;28;20226;-89
2023/01/06 08:08:10;;;;;;;1.70;1.60;;;9.00;97.30;;;;;;4992557;28;20414;-87
2023/01/06 08:10:40;;;;;;;1.30;1.20;;;9.10;97.30;;;;;;4992122;28;20409;-87
2023/01/06 08:13:05;;;;;;;1.20;1.10;;;9.10;97.30;;;;;;4991793;28;20438;-91
2023/01/06 08:15:31;;;;;;;1.90;1.80;;;9.10;97.30;;;;;;5005425;28;20449;-89
2023/01/06 08:17:56;;;;;;;1.77;1.67;;;9.10;97.30;;;;;;4975846;28;20178;-86
2023/01/06 08:20:22;;;;;;;2.97;1.43;;;9.10;97.30;;;;;;4990253;28;20310;-87
2023/01/06 08:22:48;;;;;;;1.47;1.37;;;9.10;97.30;;;;;;4990859;28;20218;-87
2023/01/06 08:25:13;;;;;;;1.10;1.00;;;9.10;97.30;;;;;;4990085;28;20215;-87
2023/01/06 08:27:39;;;;;;;3.07;1.63;;;9.20;97.30;;;;;;4990296;28;20174;-87
2023/01/06 08:30:05;;;;;;;3.50;1.93;;;9.20;97.30;;;;;;4974362;28;20602;-88
2023/01/06 08:32:30;;;;;;;1.10;1.00;;;9.20;97.30;;;;;;4973681;28;20198;-88
2023/01/06 08:34:56;;;;;;;1.90;1.83;;;9.20;97.30;;;;;;4966882;28;20438;-89
2023/01/06 08:37:21;;;;;;;0.90;0.80;;;9.30;97.30;;;;;;4954391;29;20194;-87
2023/01/06 08:39:47;;;;;;;1.30;1.20;;;9.30;97.30;;;;;;4954071;28;20190;-88
2023/01/06 08:42:13;;;;;;;1.17;1.10;;;9.30;97.30;;;;;;4954363;28;20187;-90
2023/01/06 08:44:38;;;;;;;3.90;2.20;;;9.40;97.30;;;;;;4954041;29;20254;-87
2023/01/06 08:47:04;;;;;;;1.37;1.30;;;9.50;97.30;;;;;;4954351;28;20325;-86
2023/01/06 08:49:29;;;;;;;1.60;1.50;;;9.50;97.30;;;;;;4954162;28;20364;-88
2023/01/06 08:51:55;;;;;;;0.80;0.80;;;9.60;97.30;;;;;;4970244;28;20564;-86
2023/01/06 08:54:20;;;;;;;1.43;1.33;;;9.60;97.30;;;;;;4954114;29;20344;-87
2023/01/06 08:56:46;;;;;;;1.00;0.90;;;9.60;97.30;;;;;;4970241;28;20231;-87
2023/01/06 08:59:14;;;;;;;0.93;0.83;;;9.70;97.30;;;;;;4955493;28;20187;-86
2023/01/06 09:01:40;;;;;;;2.50;1.30;;;9.70;97.30;;;;;;4953912;29;20469;-86
2023/01/06 09:04:07;;;;;;;1.20;1.10;;;9.80;97.30;;;;;;4966595;28;20478;-87
2023/01/06 09:06:34;;;;;;;1.10;1.03;;;9.80;97.30;;;;;;4972171;28;20512;-86
2023/01/06 09:09:00;;;;;;;1.27;1.17;;;9.90;97.30;;;;;;4989293;28;20429;-86
2023/01/06 09:11:26;;;;;;;1.00;0.90;;;9.90;97.30;;;;;;4973019;28;20406;-87
2023/01/06 09:13:52;;;;;;;1.73;1.50;;;9.90;97.30;;;;;;4972498;28;20448;-87
2023/01/06 09:16:19;;;;;;;1.63;1.53;;;10.00;97.30;;;;;;4972920;28;20531;-86
2023/01/06 09:18:48;;;;;;;1.20;1.07;;;10.00;97.30;;;;;;4972980;28;20796;-87
2023/01/06 09:21:19;;;;;;;2.20;1.77;;;10.00;97.30;;;;;;4973088;28;20418;-86
2023/01/06 09:23:45;;;;;;;1.10;1.10;;;10.10;97.30;;;;;;4972890;28;20937;-87
2023/01/06 09:26:11;;;;;;;1.00;0.90;;;10.10;97.30;;;;;;4973144;28;20488;-86
2023/01/06 09:28:36;;;;;;;3.60;1.50;;;10.10;97.30;;;;;;4973042;28;20421;-86
2023/01/06 09:31:02;;;;;;;1.07;0.97;;;10.10;97.30;;;;;;4972442;28;20413;-87
2023/01/06 09:33:27;;;;;;;1.00;0.90;;;10.20;97.30;;;;;;4972731;28;20245;-87
2023/01/06 09:35:53;;;;;;;1.10;1.10;;;10.20;97.30;;;;;;4976244;28;20190;-87
2023/01/06 09:38:19;;;;;;;1.07;0.97;;;10.20;97.30;;;;;;4988746;28;20213;-87
2023/01/06 09:41:18;;;;;;;1.20;1.10;;;10.20;97.30;;;;;;4973908;28;20178;-88
2023/01/06 09:43:47;;;;;;;1.10;1.00;;;10.30;97.30;;;;;;4972410;28;20212;-86
2023/01/06 09:46:16;;;;;;;1.57;1.53;;;10.30;97.30;;;;;;4988475;28;20489;-87
2023/01/06 09:48:54;;;;;;;0.97;0.87;;;10.30;97.30;;;;;;4953113;28;20467;-87
2023/01/06 09:51:23;;;;;;;2.10;1.10;;;10.30;97.30;;;;;;4952375;29;21047;-87
2023/01/06 09:53:58;;;;;;;1.67;1.57;;;10.40;97.30;;;;;;4953154;28;20443;-87
2023/01/06 09:56:25;;;;;;;1.13;1.03;;;10.40;97.30;;;;;;4952862;29;20418;-87
2023/01/06 09:59:01;;;;;;;4.87;0.97;;;10.40;97.30;;;;;;4954401;28;20470;-87
2023/01/06 10:01:33;;;;;;;1.00;0.90;;;10.40;97.30;;;;;;4952946;29;20426;-87
2023/01/06 10:04:04;;;;;;;1.60;1.50;;;10.40;97.30;;;;;;4988754;22;20504;-87
2023/01/06 10:06:43;;;;;;;1.07;1.00;;;10.40;97.30;;;;;;4991927;28;20789;-87
2023/01/06 10:09:15;;;;;;;1.23;1.13;;;10.50;97.30;;;;;;4993789;28;20768;-87
2023/01/06 10:12:06;;;;;;;0.90;0.80;;;10.50;97.30;;;;;;4992340;28;20410;-87
2023/01/06 10:14:54;;;;;;;1.00;0.90;;;10.50;97.30;;;;;;4991920;28;20433;-88
2023/01/06 10:17:36;;;;;;;3.37;1.40;;;10.50;97.30;;;;;;4991526;28;20413;-86
2023/01/06 10:20:31;;;;;;;1.63;1.10;;;10.50;97.30;;;;;;4991144;28;20902;-87
2023/01/06 10:23:29;;;;;;;1.47;1.43;;;10.50;97.30;;;;;;4991293;28;20504;-86
2023/01/06 10:26:10;;;;;;;1.30;1.20;;;10.50;97.30;;;;;;4991161;28;20811;-87
2023/01/06 10:28:46;;;;;;;8.77;1.67;;;10.60;97.30;;;;;;4990865;28;20532;-87
2023/01/06 10:31:18;;;;;;;4.30;2.10;;;10.60;97.30;;;;;;4990979;28;20421;-88
2023/01/06 10:33:48;;;;;;;1.20;1.10;;;10.60;97.30;;;;;;4991202;28;20991;-87
2023/01/06 10:36:19;;;;;;;1.17;1.07;;;10.60;97.30;;;;;;4990941;28;20412;-88
2023/01/06 10:38:48;;;;;;;1.53;1.10;;;10.60;97.30;;;;;;4991178;28;20413;-87
2023/01/06 10:41:33;;;;;;;6.53;2.77;;;10.60;97.30;;;;;;4990638;28;20417;-90
2023/01/06 10:43:58;;;;;;;1.43;1.33;;;10.60;97.30;;;;;;4992380;28;20467;-89
2023/01/06 10:46:32;;;;;;;1.23;1.20;;;10.60;97.30;;;;;;4990329;28;20955;-87
2023/01/06 10:48:57;;;;;;;1.00;0.90;;;10.60;97.30;;;;;;4990998;28;20554;-86
2023/01/06 10:51:34;;;;;;;1.03;0.93;;;10.60;97.30;;;;;;4991003;28;20409;-87
2023/01/06 10:54:11;;;;;;;1.00;0.90;;;10.70;97.30;;;;;;4991958;28;20200;-89
2023/01/06 10:56:38;;;;;;;1.40;1.30;;;10.70;97.30;;;;;;4990843;28;20424;-86
2023/01/06 10:59:09;;;;;;;1.33;1.30;;;10.70;97.30;;;;;;4990875;28;20421;-87
2023/01/06 11:01:54;;;;;;;1.10;1.00;;;10.70;97.30;;;;;;4990747;28;20420;-88
2023/01/06 11:04:20;;;;;;;1.00;0.90;;;10.70;97.30;;;;;;4990379;28;21022;-89
2023/01/06 11:06:50;;;;;;;0.87;0.77;;;10.80;97.30;;;;;;4990656;28;20420;-87
2023/01/06 11:09:25;;;;;;;4.93;1.40;;;10.80;97.30;;;;;;4990943;28;20265;-88
2023/01/06 11:11:54;;;;;;;0.90;0.80;;;10.80;97.30;;;;;;4989859;28;20932;-87
2023/01/06 11:14:23;;;;;;;0.80;0.70;;;10.80;97.30;;;;;;5006617;28;20437;-87
2023/01/06 11:17:05;;;;;;;1.23;1.07;;;10.80;97.30;;;;;;4990323;28;20417;-87
2023/01/06 11:19:35;;;;;;;0.80;0.70;;;10.80;97.30;;;;;;4990243;28;20419;-87
2023/01/06 11:22:01;;;;;;;0.87;0.77;;;10.80;97.30;;;;;;4990339;28;20432;-87
2023/01/06 11:24:28;;;;;;;1.10;1.00;;;10.90;97.30;;;;;;4990031;28;20744;-88
2023/01/06 11:26:55;;;;;;;1.40;1.30;;;11.10;97.30;;;;;;4990385;28;20421;-88
2023/01/06 11:29:29;;;;;;;1.27;1.17;;;11.40;97.30;;;;;;4990445;28;20537;-87
2023/01/06 11:31:57;;;;;;;1.30;1.20;;;11.40;97.30;;;;;;4990124;28;20409;-87
2023/01/06 11:34:26;;;;;;;1.43;1.17;;;11.50;97.30;;;;;;4990111;28;20583;-87
2023/01/06 11:36:52;;;;;;;0.90;0.80;;;11.40;97.30;;;;;;4989974;28;20425;-86
2023/01/06 11:39:26;;;;;;;2.50;1.93;;;11.40;97.30;;;;;;4987483;28;20806;-87
2023/01/06 11:41:54;;;;;;;0.90;0.80;;;11.30;97.30;;;;;;4987081;28;20417;-86
2023/01/06 11:44:34;;;;;;;0.90;0.80;;;11.40;97.30;;;;;;4991817;28;20469;-87
2023/01/06 11:47:12;;;;;;;0.97;0.87;;;11.70;97.30;;;;;;4991884;28;20487;-86
2023/01/06 11:49:49;;;;;;;0.90;0.80;;;11.80;97.30;;;;;;4988388;28;20418;-87
2023/01/06 11:52:30;;;;;;;0.90;0.80;;;11.80;97.30;;;;;;4982738;28;20412;-88
2023/01/06 11:55:07;;;;;;;1.00;0.90;;;11.90;97.30;;;;;;4982297;28;20502;-88
2023/01/06 11:57:57;;;;;;;1.00;0.90;;;11.90;97.30;;;;;;4982434;28;20490;-88
2023/01/06 12:00:42;;;;;;;0.90;0.80;;;11.80;97.30;;;;;;4984049;28;20452;-88
2023/01/06 12:03:31;;;;;;;1.00;0.90;;;11.70;97.30;;;;;;4987749;28;20421;-87
2023/01/06 12:06:03;;;;;;;1.00;0.90;;;11.60;97.30;;;;;;4988556;28;20477;-86
2023/01/06 12:09:00;;;;;;;1.00;0.90;;;11.50;97.30;;;;;;4985435;28;20410;-88
2023/01/06 12:11:54;;;;;;;0.90;0.80;;;11.40;97.30;;;;;;4985470;28;20504;-88
2023/01/06 12:14:29;;;;;;;0.90;0.80;;;11.60;97.30;;;;;;4987130;28;20437;-89
2023/01/06 12:16:54;;;;;;;1.20;1.10;;;11.70;97.30;;;;;;4993094;28;20424;-88
2023/01/06 12:19:41;;;;;;;0.90;0.80;;;11.80;97.30;;;;;;4988221;28;20468;-87
2023/01/06 12:22:33;;;;;;;0.90;0.80;;;11.90;97.30;;;;;;4986741;28;20204;-87
2023/01/06 12:25:00;;;;;;;1.27;1.17;;;12.20;97.30;;;;;;4984705;28;20611;-88
2023/01/06 12:27:55;;;;;;;0.80;0.70;;;12.50;97.30;;;;;;4987345;28;20417;-88
2023/01/06 12:30:38;;;;;;;0.87;0.77;;;12.90;97.30;;;;;;4984458;28;20456;-86
2023/01/06 12:33:22;;;;;;;1.13;1.10;;;13.20;97.30;;;;;;4983985;28;20508;-87
2023/01/06 12:35:52;;;;;;;0.90;0.80;;;13.10;97.30;;;;;;4985885;28;20405;-88
2023/01/06 12:38:39;;;;;;;1.10;1.00;;;12.70;97.30;;;;;;4988336;28;20487;-87
2023/01/06 12:41:18;;;;;;;0.90;0.80;;;12.40;97.30;;;;;;4988994;28;21092;-87
2023/01/06 12:43:53;;;;;;;0.80;0.70;;;12.20;97.30;;;;;;4986306;28;20456;-89
2023/01/06 12:46:27;;;;;;;0.90;0.80;;;12.10;97.30;;;;;;4988992;28;20987;-89
2023/01/06 12:49:03;;;;;;;1.23;1.00;;;12.10;97.30;;;;;;4988743;28;20431;-87
2023/01/06 12:52:00;;;;;;;1.30;1.30;;;12.00;97.30;;;;;;4988997;28;20430;-88
2023/01/06 12:54:36;;;;;;;1.30;1.20;;;11.90;97.30;;;;;;4969723;28;20476;-87
2023/01/06 12:57:25;;;;;;;1.10;1.00;;;11.90;97.30;;;;;;4991591;28;20444;-87
2023/01/06 13:00:10;;;;;;;1.40;1.30;;;11.90;97.30;;;;;;4991689;28;20461;-90
2023/01/06 13:03:39;;;;;;;0.90;0.80;;;11.90;97.30;;;;;;4989095;28;20417;-87
2023/01/06 13:06:20;;;;;;;1.10;1.00;;;11.90;97.30;;;;;;4928349;29;20482;-86
2023/01/06 13:09:23;;;;;;;1.20;1.10;;;11.90;97.30;;;;;;5002657;28;20423;-88
2023/01/06 13:11:48;;;;;;;0.90;0.80;;;11.80;97.30;;;;;;4991786;28;20407;-87
2023/01/06 13:14:20;;;;;;;0.90;0.80;;;11.80;97.30;;;;;;4991290;28;20523;-87
2023/01/06 13:16:52;;;;;;;1.00;0.90;;;11.80;97.30;;;;;;4991526;28;20276;-86
2023/01/06 13:19:23;;;;;;;1.00;0.90;;;11.80;97.30;;;;;;4989512;28;20413;-86